Time;durP1;ratioP1;P1;durP2;ratioP2;P2;SDS_P1;SDS_P2;PMS_P1;PMS_P2;Temp;Humidity;BMP_temperature;BMP_pressure;BME280_temperature;BME280_humidity;BME280_pressure;Samples;Min_cycle;Max_cycle;Signal;HPM_P1;HPM_P2
2021/04/16 00:01:07;;;;;;;9.70;6.10;;;8.40;44.90;;;;;;5027014;28;20273;-45
2021/04/16 00:03:33;;;;;;;6.83;5.70;;;8.40;44.90;;;;;;5025058;28;20198;-47
2021/04/16 00:05:59;;;;;;;6.83;5.80;;;8.30;44.90;;;;;;5032051;28;20280;-44
2021/04/16 00:08:32;;;;;;;9.37;6.13;;;8.30;45.10;;;;;;5030532;28;20203;-45
2021/04/16 00:11:26;;;;;;;6.77;5.57;;;8.30;45.10;;;;;;5021724;28;20632;-45
2021/04/16 00:13:52;;;;;;;7.77;5.70;;;8.30;45.20;;;;;;5027868;28;20433;-49
2021/04/16 00:16:21;;;;;;;7.60;6.07;;;8.30;45.30;;;;;;5018573;28;20483;-46
2021/04/16 00:18:47;;;;;;;8.27;5.87;;;8.30;45.50;;;;;;5028116;28;20482;-47
2021/04/16 00:21:14;;;;;;;6.30;5.63;;;8.20;45.60;;;;;;5025282;28;20923;-48
2021/04/16 00:23:40;;;;;;;5.97;5.37;;;8.20;45.70;;;;;;5025948;28;20462;-45
2021/04/16 00:26:07;;;;;;;6.47;5.50;;;8.10;45.80;;;;;;5025508;28;20471;-45
2021/04/16 00:28:33;;;;;;;6.70;5.70;;;8.10;45.80;;;;;;5025505;28;20516;-44
2021/04/16 00:31:02;;;;;;;8.50;5.30;;;8.10;45.70;;;;;;5028622;28;20447;-46
2021/04/16 00:33:28;;;;;;;7.57;5.60;;;8.10;45.70;;;;;;5028948;28;20432;-47
2021/04/16 00:35:55;;;;;;;8.00;6.17;;;8.00;45.60;;;;;;5026017;28;20512;-48
2021/04/16 00:38:21;;;;;;;7.40;6.33;;;8.00;45.50;;;;;;5028450;28;20940;-45
2021/04/16 00:40:51;;;;;;;6.30;5.67;;;7.90;45.70;;;;;;5026870;28;20435;-44
2021/04/16 00:43:20;;;;;;;9.40;5.47;;;7.90;45.80;;;;;;5039978;28;20432;-45
2021/04/16 00:45:47;;;;;;;6.53;5.93;;;7.80;45.90;;;;;;5023299;28;20435;-48
2021/04/16 00:48:35;;;;;;;8.87;6.60;;;7.80;45.90;;;;;;5029281;28;20911;-45
2021/04/16 00:51:04;;;;;;;7.30;5.27;;;7.90;45.90;;;;;;5022499;28;20904;-45
2021/04/16 00:53:30;;;;;;;7.77;5.90;;;7.80;45.90;;;;;;5019251;28;20483;-45
2021/04/16 00:55:57;;;;;;;5.43;4.93;;;7.80;46.10;;;;;;5022737;28;20487;-44
2021/04/16 00:58:26;;;;;;;7.60;6.67;;;7.70;46.20;;;;;;5022723;28;21009;-44
2021/04/16 01:00:54;;;;;;;6.43;5.00;;;7.70;46.30;;;;;;5018898;28;20552;-48
2021/04/16 01:03:20;;;;;;;5.93;4.93;;;7.60;46.50;;;;;;5025035;28;20439;-46
2021/04/16 01:05:46;;;;;;;7.10;5.93;;;7.60;46.30;;;;;;5021802;28;20516;-46
2021/04/16 01:08:12;;;;;;;7.47;5.50;;;7.60;46.40;;;;;;5021242;28;20547;-46
2021/04/16 01:10:39;;;;;;;6.27;5.67;;;7.60;46.40;;;;;;5016080;28;20467;-46
2021/04/16 01:13:06;;;;;;;6.97;5.80;;;7.50;46.40;;;;;;5008690;28;20467;-47
2021/04/16 01:15:37;;;;;;;6.50;5.60;;;7.50;46.50;;;;;;5015386;28;20529;-44
2021/04/16 01:18:11;;;;;;;7.03;5.70;;;7.50;46.50;;;;;;5017092;28;21208;-47
2021/04/16 01:20:40;;;;;;;6.63;5.10;;;7.40;46.60;;;;;;5023009;28;20440;-48
2021/04/16 01:23:17;;;;;;;6.40;5.80;;;7.50;46.70;;;;;;5024479;28;20799;-47
2021/04/16 01:25:43;;;;;;;7.27;5.00;;;7.40;47.00;;;;;;5025400;28;20570;-47
2021/04/16 01:28:09;;;;;;;6.53;5.20;;;7.30;47.50;;;;;;5015944;28;20443;-45
2021/04/16 01:30:51;;;;;;;7.00;5.50;;;7.30;47.30;;;;;;5028639;28;20444;-48
2021/04/16 01:33:16;;;;;;;7.40;5.90;;;7.20;47.40;;;;;;5024939;28;20918;-45
2021/04/16 01:35:42;;;;;;;8.27;5.97;;;7.00;48.30;;;;;;5019705;28;20564;-47
2021/04/16 01:38:08;;;;;;;9.20;5.10;;;6.90;48.60;;;;;;5018252;28;20202;-48
2021/04/16 01:40:34;;;;;;;7.00;5.53;;;6.90;48.30;;;;;;5024137;28;20284;-46
2021/04/16 01:43:28;;;;;;;7.43;5.60;;;6.90;48.00;;;;;;5019974;28;20565;-44
2021/04/16 01:46:10;;;;;;;7.80;6.10;;;7.00;48.00;;;;;;5024935;28;20204;-45
2021/04/16 01:48:42;;;;;;;7.87;4.70;;;7.10;47.70;;;;;;5019213;28;20916;-45
2021/04/16 01:51:11;;;;;;;6.23;5.10;;;7.10;47.40;;;;;;5019242;28;20527;-46
2021/04/16 01:53:37;;;;;;;6.83;5.20;;;7.10;47.40;;;;;;5022671;28;20467;-47
2021/04/16 01:56:03;;;;;;;6.13;4.63;;;7.10;47.80;;;;;;5017817;28;20488;-44
2021/04/16 01:58:29;;;;;;;9.97;5.23;;;7.00;47.90;;;;;;5024292;28;20829;-47
2021/04/16 02:00:55;;;;;;;6.40;5.13;;;7.00;48.00;;;;;;5020222;28;20503;-45
2021/04/16 02:03:21;;;;;;;8.10;4.90;;;7.10;47.80;;;;;;5022563;28;20189;-44
2021/04/16 02:05:46;;;;;;;4.70;4.30;;;7.10;47.60;;;;;;5022038;28;20499;-43
2021/04/16 02:08:12;;;;;;;5.30;4.57;;;7.00;47.50;;;;;;5023909;28;20208;-42
2021/04/16 02:10:38;;;;;;;9.20;5.57;;;6.90;47.90;;;;;;5021453;28;20189;-44
2021/04/16 02:13:05;;;;;;;5.50;5.00;;;6.90;47.90;;;;;;5016763;28;20193;-47
2021/04/16 02:15:31;;;;;;;6.30;5.30;;;7.00;47.60;;;;;;5018289;28;20312;-42
2021/04/16 02:17:57;;;;;;;7.17;5.27;;;7.00;47.30;;;;;;5024443;28;21101;-47
2021/04/16 02:20:29;;;;;;;5.63;4.70;;;7.00;47.40;;;;;;5023467;28;20879;-42
2021/04/16 02:22:55;;;;;;;6.13;5.27;;;7.00;47.40;;;;;;5019813;28;20428;-45
2021/04/16 02:25:21;;;;;;;5.37;4.80;;;6.90;47.30;;;;;;5024650;28;20492;-44
2021/04/16 02:27:47;;;;;;;6.10;5.43;;;6.90;47.40;;;;;;5019468;28;20192;-43
2021/04/16 02:30:27;;;;;;;9.63;5.23;;;6.90;47.60;;;;;;5017267;28;20437;-44
2021/04/16 02:32:53;;;;;;;5.03;4.27;;;6.80;47.90;;;;;;5022087;28;20189;-45
2021/04/16 02:35:20;;;;;;;5.83;5.10;;;6.80;47.80;;;;;;5035333;28;21017;-42
2021/04/16 02:37:45;;;;;;;8.60;5.33;;;6.80;47.80;;;;;;5021957;28;20197;-43
2021/04/16 02:40:14;;;;;;;7.23;5.30;;;6.70;47.80;;;;;;5017192;28;20866;-44
2021/04/16 02:42:40;;;;;;;7.33;4.70;;;6.70;48.00;;;;;;5016155;28;20689;-43
2021/04/16 02:45:10;;;;;;;5.83;4.97;;;6.70;48.20;;;;;;5017285;28;20428;-44
2021/04/16 02:47:36;;;;;;;12.00;4.63;;;6.70;48.20;;;;;;5018981;28;20436;-48
2021/04/16 02:50:04;;;;;;;5.93;4.70;;;6.70;48.30;;;;;;5021615;28;20417;-47
2021/04/16 02:52:29;;;;;;;5.67;4.57;;;6.60;48.50;;;;;;5020292;28;20241;-47
2021/04/16 02:54:55;;;;;;;5.73;4.60;;;6.60;48.50;;;;;;5018657;28;20512;-46
2021/04/16 02:57:21;;;;;;;6.50;4.37;;;6.60;48.70;;;;;;5027352;28;20235;-44
2021/04/16 02:59:46;;;;;;;5.13;3.80;;;6.60;48.60;;;;;;5022972;28;20232;-43
2021/04/16 03:02:12;;;;;;;6.50;5.03;;;6.70;48.50;;;;;;5022668;28;20193;-43
2021/04/16 03:04:37;;;;;;;4.93;4.03;;;6.60;48.40;;;;;;5019234;28;20194;-45
2021/04/16 03:07:03;;;;;;;7.90;4.37;;;6.60;48.40;;;;;;5017525;28;20194;-45
2021/04/16 03:09:29;;;;;;;6.77;4.63;;;6.60;48.40;;;;;;5024221;28;20676;-43
2021/04/16 03:11:54;;;;;;;4.20;3.80;;;6.70;48.30;;;;;;5019518;28;20193;-43
2021/04/16 03:14:20;;;;;;;6.10;5.23;;;6.70;48.20;;;;;;5022258;28;20682;-45
2021/04/16 03:16:47;;;;;;;6.03;4.20;;;6.60;48.00;;;;;;5017451;28;20209;-44
2021/04/16 03:19:13;;;;;;;6.10;4.50;;;6.60;48.10;;;;;;5025619;28;20582;-44
2021/04/16 03:21:39;;;;;;;6.20;4.10;;;6.60;48.10;;;;;;5021082;28;20434;-47
2021/04/16 03:24:05;;;;;;;5.37;4.23;;;6.50;48.00;;;;;;5023989;28;20208;-43
2021/04/16 03:26:31;;;;;;;5.10;4.40;;;6.60;48.00;;;;;;5018734;28;20554;-43
2021/04/16 03:28:58;;;;;;;5.70;5.10;;;6.50;48.00;;;;;;5024636;28;20432;-44
2021/04/16 03:31:26;;;;;;;5.10;4.53;;;6.50;48.00;;;;;;5022254;28;20259;-47
2021/04/16 03:33:53;;;;;;;6.73;5.43;;;6.50;48.00;;;;;;5008313;28;20432;-45
2021/04/16 03:36:18;;;;;;;6.80;5.83;;;6.50;48.10;;;;;;5022082;28;20556;-44
2021/04/16 03:38:46;;;;;;;6.10;4.80;;;6.50;48.20;;;;;;5023127;28;20476;-44
2021/04/16 03:41:12;;;;;;;5.00;4.40;;;6.40;47.80;;;;;;5025499;28;20425;-43
2021/04/16 03:43:37;;;;;;;6.40;4.10;;;6.30;47.80;;;;;;5024296;28;20432;-44
2021/04/16 03:46:03;;;;;;;6.03;5.10;;;6.40;48.00;;;;;;5026470;28;20197;-44
2021/04/16 03:48:29;;;;;;;6.10;4.50;;;6.20;48.30;;;;;;5027134;28;20194;-46
2021/04/16 03:50:55;;;;;;;5.70;4.30;;;6.40;48.60;;;;;;5026690;28;20358;-43
2021/04/16 03:53:21;;;;;;;7.73;4.17;;;6.20;48.70;;;;;;5020748;28;20189;-43
2021/04/16 03:55:47;;;;;;;5.77;4.60;;;6.10;49.00;;;;;;5022282;28;20232;-46
2021/04/16 03:58:12;;;;;;;6.17;4.00;;;6.10;49.20;;;;;;5022062;28;20433;-43
2021/04/16 04:00:40;;;;;;;4.90;4.50;;;6.10;49.10;;;;;;5022538;28;20808;-46
2021/04/16 04:03:07;;;;;;;6.20;4.20;;;6.10;49.00;;;;;;4999894;28;20205;-44
2021/04/16 04:05:34;;;;;;;8.57;4.40;;;6.00;48.80;;;;;;5016442;28;20831;-46
2021/04/16 04:07:59;;;;;;;7.43;4.20;;;6.00;48.90;;;;;;5021361;28;20446;-46
2021/04/16 04:10:28;;;;;;;4.97;4.23;;;6.00;48.80;;;;;;5030587;28;20443;-45
2021/04/16 04:12:53;;;;;;;5.40;4.27;;;6.10;48.90;;;;;;5011230;28;20194;-45
2021/04/16 04:15:20;;;;;;;6.57;4.50;;;5.90;49.20;;;;;;5025977;28;20480;-46
2021/04/16 04:17:46;;;;;;;6.00;4.63;;;5.80;49.40;;;;;;5016255;28;20656;-43
2021/04/16 04:20:19;;;;;;;4.63;4.30;;;5.80;49.50;;;;;;5020781;28;20516;-45
2021/04/16 04:22:45;;;;;;;8.30;4.13;;;5.80;49.20;;;;;;5024709;28;20186;-47
2021/04/16 04:25:12;;;;;;;5.40;4.90;;;5.90;49.60;;;;;;5025957;28;20439;-44
2021/04/16 04:27:38;;;;;;;4.57;3.63;;;5.80;49.00;;;;;;5025517;28;20197;-44
2021/04/16 04:30:05;;;;;;;6.90;4.23;;;5.80;49.00;;;;;;5026520;28;20444;-47
2021/04/16 04:32:30;;;;;;;5.37;4.67;;;5.80;49.00;;;;;;5024644;28;20562;-43
2021/04/16 04:34:56;;;;;;;4.67;4.00;;;5.80;48.90;;;;;;5022796;28;20483;-43
2021/04/16 04:37:22;;;;;;;5.80;4.70;;;5.80;48.70;;;;;;5022008;28;20193;-44
2021/04/16 04:39:48;;;;;;;5.70;4.47;;;5.80;48.60;;;;;;5023092;28;20186;-43
2021/04/16 04:42:14;;;;;;;5.60;4.33;;;5.90;48.70;;;;;;5023950;28;20457;-44
2021/04/16 04:44:40;;;;;;;4.80;3.77;;;5.90;48.50;;;;;;5019676;28;20665;-44
2021/04/16 04:47:08;;;;;;;5.97;4.13;;;5.90;48.60;;;;;;5022026;28;20433;-44
2021/04/16 04:49:34;;;;;;;4.33;3.93;;;6.20;48.90;;;;;;5023543;28;20562;-46
2021/04/16 04:52:18;;;;;;;4.87;3.80;;;5.90;48.70;;;;;;5021109;28;20428;-45
2021/04/16 04:54:47;;;;;;;6.83;5.43;;;5.80;48.90;;;;;;5025739;28;20486;-47
2021/04/16 04:57:13;;;;;;;9.80;6.70;;;5.80;49.10;;;;;;5026556;28;20432;-43
2021/04/16 04:59:38;;;;;;;6.70;5.90;;;5.80;49.10;;;;;;5019936;28;20558;-44
2021/04/16 05:02:04;;;;;;;4.77;4.33;;;5.80;49.00;;;;;;5030664;28;20439;-46
2021/04/16 05:04:30;;;;;;;5.50;4.40;;;5.90;49.00;;;;;;5021216;28;20580;-44
2021/04/16 05:06:55;;;;;;;7.23;4.20;;;5.90;49.20;;;;;;5021192;28;20497;-44
2021/04/16 05:09:21;;;;;;;5.70;4.70;;;5.80;49.70;;;;;;5018003;28;20235;-45
2021/04/16 05:11:46;;;;;;;5.70;4.40;;;5.80;49.90;;;;;;5024337;28;20272;-46
2021/04/16 05:14:12;;;;;;;8.20;4.50;;;5.80;50.00;;;;;;5023908;28;20675;-43
2021/04/16 05:16:38;;;;;;;11.83;4.27;;;5.80;50.00;;;;;;5025810;28;20646;-44
2021/04/16 05:19:03;;;;;;;4.70;3.53;;;6.00;51.40;;;;;;5018909;28;20287;-42
2021/04/16 05:21:29;;;;;;;5.80;4.40;;;6.40;52.90;;;;;;5028750;28;20204;-43
2021/04/16 05:23:56;;;;;;;11.00;4.60;;;6.80;53.00;;;;;;5020010;28;20565;-43
2021/04/16 05:26:22;;;;;;;6.23;3.93;;;7.20;51.90;;;;;;5022361;28;20491;-43
2021/04/16 05:28:47;;;;;;;4.80;4.40;;;7.90;50.60;;;;;;5017120;28;20429;-42
2021/04/16 05:31:13;;;;;;;5.53;4.77;;;7.70;49.10;;;;;;5020161;28;20190;-43
2021/04/16 05:33:38;;;;;;;5.47;4.63;;;7.90;48.20;;;;;;5017913;28;20189;-42
2021/04/16 05:36:04;;;;;;;6.50;4.87;;;8.10;47.60;;;;;;5019814;28;20272;-43
2021/04/16 05:38:30;;;;;;;6.60;4.70;;;8.30;47.70;;;;;;5022216;28;20194;-43
2021/04/16 05:40:55;;;;;;;7.97;5.13;;;8.50;46.90;;;;;;5025505;28;21303;-43
2021/04/16 05:43:21;;;;;;;6.47;4.77;;;8.60;46.50;;;;;;5015915;28;20255;-42
2021/04/16 05:45:46;;;;;;;6.60;5.30;;;8.50;46.00;;;;;;5020060;28;20625;-46
2021/04/16 05:48:12;;;;;;;7.63;5.00;;;8.50;45.90;;;;;;5020027;28;20193;-43
2021/04/16 05:50:38;;;;;;;4.70;4.30;;;8.50;45.60;;;;;;5023364;28;20572;-42
2021/04/16 05:53:03;;;;;;;5.10;4.60;;;8.60;45.90;;;;;;5019331;28;20197;-43
2021/04/16 05:55:30;;;;;;;5.83;4.07;;;8.70;45.60;;;;;;5027724;28;20225;-43
2021/04/16 05:57:56;;;;;;;5.40;4.30;;;8.90;45.40;;;;;;5012090;28;20340;-44
2021/04/16 06:00:22;;;;;;;4.70;4.20;;;9.10;45.10;;;;;;5024136;28;20530;-44
2021/04/16 06:02:48;;;;;;;5.93;5.33;;;9.20;44.90;;;;;;5016742;28;20868;-42
2021/04/16 06:05:17;;;;;;;5.53;4.90;;;9.40;44.90;;;;;;5031572;28;21062;-44
2021/04/16 06:07:44;;;;;;;5.73;5.00;;;9.50;44.30;;;;;;5003475;28;21007;-43
2021/04/16 06:10:11;;;;;;;6.07;5.27;;;9.60;43.90;;;;;;5022855;28;20935;-42
2021/04/16 06:12:38;;;;;;;6.13;5.20;;;9.60;43.40;;;;;;5020161;28;20472;-45
2021/04/16 06:15:09;;;;;;;5.73;4.77;;;9.70;43.50;;;;;;5027041;28;20480;-43
2021/04/16 06:17:35;;;;;;;6.00;5.40;;;9.70;43.50;;;;;;5022786;28;20479;-43
2021/04/16 06:20:01;;;;;;;9.47;5.27;;;9.80;43.50;;;;;;5019689;28;20452;-44
2021/04/16 06:22:27;;;;;;;6.37;5.27;;;9.90;43.20;;;;;;5017516;28;20460;-42
2021/04/16 06:24:52;;;;;;;7.30;5.87;;;10.10;42.50;;;;;;5025208;28;20200;-42
2021/04/16 06:27:19;;;;;;;12.83;4.93;;;10.20;42.30;;;;;;5018459;28;20596;-46
2021/04/16 06:29:45;;;;;;;6.10;5.00;;;10.30;42.30;;;;;;5020072;28;20229;-44
2021/04/16 06:32:13;;;;;;;6.17;5.57;;;10.40;42.40;;;;;;5022573;28;20468;-43
2021/04/16 06:34:39;;;;;;;6.27;4.40;;;10.60;42.30;;;;;;5024965;28;20439;-42
2021/04/16 06:37:05;;;;;;;6.00;4.67;;;10.80;42.30;;;;;;5020183;28;20440;-43
2021/04/16 06:39:31;;;;;;;5.43;4.90;;;11.00;42.00;;;;;;5009059;28;20193;-43
2021/04/16 06:41:59;;;;;;;5.80;4.93;;;11.20;42.00;;;;;;5027187;28;20458;-44
2021/04/16 06:44:30;;;;;;;5.47;5.07;;;11.30;41.70;;;;;;5029878;28;20193;-44
2021/04/16 06:47:03;;;;;;;7.53;4.60;;;11.30;41.30;;;;;;5027950;28;20927;-44
2021/04/16 06:49:31;;;;;;;9.27;4.70;;;11.40;41.30;;;;;;5025366;28;20487;-44
2021/04/16 06:52:02;;;;;;;4.43;4.03;;;11.60;41.30;;;;;;5028253;28;20432;-43
2021/04/16 06:54:44;;;;;;;6.00;4.30;;;11.60;41.20;;;;;;5029799;28;20443;-44
2021/04/16 06:57:23;;;;;;;5.30;4.40;;;11.70;41.30;;;;;;5027066;28;20448;-44
2021/04/16 07:00:15;;;;;;;4.43;4.03;;;11.80;41.00;;;;;;5025900;28;20420;-44
2021/04/16 07:02:49;;;;;;;4.70;4.30;;;11.90;40.90;;;;;;5030020;28;20456;-42
2021/04/16 07:05:31;;;;;;;4.70;4.30;;;11.90;40.90;;;;;;5030983;28;20514;-43
2021/04/16 07:07:58;;;;;;;5.20;4.70;;;11.70;41.00;;;;;;5016438;28;20528;-42
2021/04/16 07:10:28;;;;;;;7.10;4.30;;;11.60;41.30;;;;;;5025415;28;20440;-46
2021/04/16 07:12:56;;;;;;;6.27;4.40;;;11.60;41.40;;;;;;5028692;28;20430;-42
2021/04/16 07:15:28;;;;;;;4.93;4.30;;;11.50;41.60;;;;;;5025026;28;20492;-44
2021/04/16 07:17:54;;;;;;;5.63;5.00;;;11.60;41.60;;;;;;5026063;28;20499;-44
2021/04/16 07:20:23;;;;;;;5.37;4.63;;;11.60;41.50;;;;;;5031263;28;20428;-45
2021/04/16 07:22:52;;;;;;;4.80;4.30;;;11.70;41.50;;;;;;5015004;28;20436;-43
2021/04/16 07:25:44;;;;;;;4.77;4.37;;;11.60;41.50;;;;;;5029433;28;20444;-42
2021/04/16 07:28:13;;;;;;;8.07;4.40;;;11.40;41.60;;;;;;5019700;28;20532;-46
2021/04/16 07:30:46;;;;;;;5.63;4.43;;;11.60;41.90;;;;;;5027401;28;20441;-42
2021/04/16 07:33:41;;;;;;;4.10;3.80;;;11.70;41.90;;;;;;5024244;28;20533;-43
2021/04/16 07:36:28;;;;;;;4.80;4.40;;;11.70;41.80;;;;;;5028406;28;20531;-44
2021/04/16 07:39:16;;;;;;;4.70;4.00;;;11.80;41.70;;;;;;5026230;28;20535;-43
2021/04/16 07:41:48;;;;;;;7.53;4.20;;;11.80;41.50;;;;;;5009968;28;20483;-44
2021/04/16 07:44:34;;;;;;;6.20;4.20;;;11.80;41.60;;;;;;5022516;28;20464;-43
2021/04/16 07:47:13;;;;;;;6.83;4.33;;;11.90;41.60;;;;;;5023200;28;20941;-44
2021/04/16 07:49:53;;;;;;;4.67;4.10;;;11.90;41.60;;;;;;5024463;28;20763;-46
2021/04/16 07:52:37;;;;;;;4.67;4.27;;;11.70;41.80;;;;;;5028332;28;20436;-44
2021/04/16 07:55:03;;;;;;;4.60;4.10;;;11.60;42.10;;;;;;5025594;28;20489;-43
2021/04/16 07:57:30;;;;;;;4.50;4.10;;;11.70;42.80;;;;;;5022393;28;20781;-43
2021/04/16 08:00:00;;;;;;;8.03;4.40;;;11.80;42.50;;;;;;5029099;28;20205;-46
2021/04/16 08:02:33;;;;;;;5.43;4.23;;;11.90;42.40;;;;;;5025030;28;20486;-42
2021/04/16 08:05:11;;;;;;;4.90;4.40;;;11.90;42.00;;;;;;5027847;28;20439;-43
2021/04/16 08:07:36;;;;;;;4.43;4.03;;;11.90;42.00;;;;;;5018258;28;20432;-42
2021/04/16 08:10:14;;;;;;;4.60;4.20;;;11.80;42.10;;;;;;5028113;28;20946;-42
2021/04/16 08:12:40;;;;;;;4.53;4.13;;;11.80;42.10;;;;;;5022856;28;20194;-44
2021/04/16 08:15:18;;;;;;;5.73;4.53;;;11.90;42.20;;;;;;5027896;28;20484;-43
2021/04/16 08:17:44;;;;;;;4.30;4.00;;;11.90;42.40;;;;;;5018454;28;20269;-43
2021/04/16 08:20:27;;;;;;;5.20;4.63;;;11.90;42.40;;;;;;5026773;28;20427;-43
2021/04/16 08:22:54;;;;;;;5.87;5.27;;;11.90;42.50;;;;;;5025131;28;20457;-47
2021/04/16 08:25:30;;;;;;;5.00;4.50;;;11.70;42.70;;;;;;5020430;28;20923;-44
2021/04/16 08:28:07;;;;;;;4.80;4.40;;;11.60;43.00;;;;;;5022690;28;20505;-43
2021/04/16 08:30:55;;;;;;;7.33;4.60;;;11.70;43.40;;;;;;5022303;28;20444;-44
2021/04/16 08:33:52;;;;;;;4.90;4.50;;;11.70;43.40;;;;;;5026629;28;20447;-44
2021/04/16 08:36:32;;;;;;;4.60;4.20;;;11.60;43.40;;;;;;5030029;28;20971;-45
2021/04/16 08:39:19;;;;;;;5.90;5.40;;;11.70;43.50;;;;;;5022352;28;20896;-45
2021/04/16 08:41:55;;;;;;;4.97;4.47;;;11.60;43.40;;;;;;5024512;28;20439;-43
2021/04/16 08:44:22;;;;;;;4.60;4.10;;;11.70;43.40;;;;;;5023360;28;20913;-44
2021/04/16 08:46:50;;;;;;;5.13;4.67;;;11.80;43.30;;;;;;5025740;28;20470;-43
2021/04/16 08:49:32;;;;;;;5.33;4.93;;;11.80;43.30;;;;;;5023845;28;20462;-44
2021/04/16 08:52:41;;;;;;;5.30;4.90;;;11.90;43.40;;;;;;5023982;28;20432;-44
2021/04/16 08:55:27;;;;;;;5.77;5.17;;;12.00;43.00;;;;;;5010650;28;20496;-44
2021/04/16 08:58:00;;;;;;;5.27;4.70;;;12.10;42.70;;;;;;5023996;28;20439;-45
2021/04/16 09:00:34;;;;;;;5.40;4.90;;;12.10;42.70;;;;;;5019817;28;20440;-44
2021/04/16 09:03:03;;;;;;;6.07;5.47;;;12.10;42.70;;;;;;5021748;28;20552;-44
2021/04/16 09:05:33;;;;;;;5.30;4.80;;;12.20;42.60;;;;;;5023195;28;21031;-43
2021/04/16 09:08:37;;;;;;;4.23;3.93;;;12.30;42.80;;;;;;5016457;28;20796;-43
2021/04/16 09:11:05;;;;;;;5.27;4.73;;;12.40;42.80;;;;;;5019944;28;20439;-43
2021/04/16 09:13:36;;;;;;;4.63;4.23;;;12.50;42.50;;;;;;5016240;28;20446;-46
2021/04/16 09:16:17;;;;;;;4.67;4.27;;;12.40;42.10;;;;;;5024250;28;20479;-43
2021/04/16 09:18:47;;;;;;;4.90;4.50;;;12.40;42.20;;;;;;5023894;28;20503;-43
2021/04/16 09:21:21;;;;;;;5.60;5.03;;;12.40;42.50;;;;;;5026575;28;20801;-44
2021/04/16 09:23:47;;;;;;;4.80;4.37;;;12.50;42.40;;;;;;5023054;28;20444;-45
2021/04/16 09:26:46;;;;;;;4.63;4.23;;;12.40;42.30;;;;;;5017376;28;20494;-44
2021/04/16 09:29:37;;;;;;;5.60;5.00;;;12.50;42.10;;;;;;5029258;28;20742;-46
2021/04/16 09:32:05;;;;;;;4.67;4.20;;;12.50;42.20;;;;;;5008134;28;20460;-43
2021/04/16 09:34:42;;;;;;;5.20;4.73;;;12.60;42.50;;;;;;5023176;28;20997;-43
2021/04/16 09:37:24;;;;;;;5.70;4.80;;;12.70;42.60;;;;;;5024034;28;20433;-44
2021/04/16 09:40:10;;;;;;;5.57;4.50;;;12.70;42.10;;;;;;5023457;28;20431;-44
2021/04/16 09:42:37;;;;;;;6.50;4.40;;;12.80;42.00;;;;;;5020684;28;20478;-44
2021/04/16 09:45:08;;;;;;;4.93;4.50;;;13.00;41.90;;;;;;5029702;28;20428;-44
2021/04/16 09:47:47;;;;;;;5.67;5.17;;;13.00;40.80;;;;;;5020312;28;20453;-45
2021/04/16 09:50:24;;;;;;;5.00;4.60;;;13.20;40.40;;;;;;5025892;28;20483;-44
2021/04/16 09:53:08;;;;;;;6.33;4.43;;;13.40;40.40;;;;;;5030918;28;20430;-50
2021/04/16 09:55:42;;;;;;;8.00;4.80;;;13.40;39.90;;;;;;5035700;28;20482;-45
2021/04/16 09:58:10;;;;;;;5.33;4.70;;;13.50;39.70;;;;;;5045723;28;20440;-46
2021/04/16 10:00:45;;;;;;;5.53;4.57;;;13.60;39.50;;;;;;5035525;28;21004;-46
2021/04/16 10:03:43;;;;;;;5.37;4.87;;;13.40;39.50;;;;;;5042020;28;21211;-49
2021/04/16 10:06:32;;;;;;;5.27;4.50;;;13.20;39.50;;;;;;5033670;28;20446;-45
2021/04/16 10:09:06;;;;;;;5.07;4.67;;;13.10;40.10;;;;;;5032739;28;20473;-45
2021/04/16 10:11:32;;;;;;;5.30;4.80;;;13.00;40.00;;;;;;5041081;28;20481;-46
2021/04/16 10:14:28;;;;;;;7.70;4.77;;;12.60;40.60;;;;;;5041993;28;20436;-44
2021/04/16 10:17:03;;;;;;;4.63;4.33;;;12.40;41.30;;;;;;5033546;28;20522;-42
2021/04/16 10:19:40;;;;;;;5.27;4.50;;;12.30;41.40;;;;;;5034531;28;20455;-46
2021/04/16 10:22:24;;;;;;;5.10;4.70;;;12.50;41.20;;;;;;5032805;28;20444;-45
2021/04/16 11:06:56;;;;;;;5.43;4.93;;;13.60;43.10;;;;;;5043919;28;20431;-44
2021/04/16 12:40:51;;;;;;;4.80;4.00;;;13.40;39.60;;;;;;5045315;28;20458;-42
2021/04/16 12:43:17;;;;;;;4.70;4.40;;;13.20;38.70;;;;;;5041654;28;20442;-45
2021/04/16 12:45:43;;;;;;;3.90;3.50;;;13.00;38.60;;;;;;5045423;28;20456;-42
2021/04/16 12:48:09;;;;;;;4.23;3.93;;;13.10;39.00;;;;;;5043913;28;20514;-42
2021/04/16 12:50:34;;;;;;;4.07;3.73;;;13.10;38.90;;;;;;5044299;28;20188;-42
2021/04/16 12:53:00;;;;;;;6.67;4.90;;;13.30;39.30;;;;;;5039844;28;20780;-43
2021/04/16 12:55:27;;;;;;;4.80;4.40;;;13.50;39.80;;;;;;5044362;28;20256;-43
2021/04/16 12:58:00;;;;;;;4.17;3.77;;;13.50;39.50;;;;;;5050117;28;20223;-43
2021/04/16 13:00:35;;;;;;;6.47;5.30;;;13.70;38.80;;;;;;5046183;28;20919;-43
2021/04/16 13:03:09;;;;;;;3.60;3.30;;;13.80;38.60;;;;;;5048022;28;20904;-43
2021/04/16 13:05:35;;;;;;;3.00;2.73;;;13.80;37.50;;;;;;5043334;28;20434;-44
2021/04/16 13:08:06;;;;;;;3.90;3.53;;;13.70;38.30;;;;;;5046151;28;20419;-45
2021/04/16 13:10:31;;;;;;;3.10;2.90;;;13.90;37.80;;;;;;5042401;28;20484;-44
2021/04/16 13:12:57;;;;;;;2.67;2.47;;;13.70;37.40;;;;;;5045046;28;20496;-44
2021/04/16 13:15:23;;;;;;;2.70;2.50;;;13.80;37.30;;;;;;5040718;28;20217;-44
2021/04/16 13:17:56;;;;;;;2.73;2.53;;;13.80;37.80;;;;;;5043830;28;20235;-45
2021/04/16 13:20:24;;;;;;;2.50;2.30;;;13.80;37.40;;;;;;5039548;28;20458;-46
2021/04/16 13:22:50;;;;;;;2.73;2.47;;;13.90;37.10;;;;;;5043500;28;20477;-43
2021/04/16 13:25:19;;;;;;;2.00;1.90;;;14.00;36.90;;;;;;5006712;28;20531;-44
2021/04/16 13:27:45;;;;;;;2.43;2.23;;;14.00;35.80;;;;;;5030092;28;20446;-44
2021/04/16 13:30:12;;;;;;;2.40;2.20;;;14.10;35.40;;;;;;5029419;28;20457;-44
2021/04/16 13:33:00;;;;;;;2.80;2.47;;;14.10;35.10;;;;;;5029747;28;20436;-44
2021/04/16 13:35:34;;;;;;;2.93;2.63;;;14.40;34.90;;;;;;5042542;28;20466;-42
2021/04/16 13:38:03;;;;;;;3.80;2.70;;;14.10;35.10;;;;;;5038159;28;20436;-42
2021/04/16 13:40:29;;;;;;;3.53;2.60;;;14.00;34.80;;;;;;5044628;28;20436;-42
2021/04/16 13:42:55;;;;;;;2.50;2.30;;;14.00;35.30;;;;;;5035041;28;20445;-43
2021/04/16 13:45:21;;;;;;;2.67;2.47;;;14.10;35.60;;;;;;5031894;28;20439;-43
2021/04/16 13:47:47;;;;;;;3.17;2.87;;;14.20;35.80;;;;;;5039927;28;20194;-41
2021/04/16 13:50:15;;;;;;;2.87;2.67;;;14.10;36.30;;;;;;5031814;28;20641;-44
2021/04/16 13:52:40;;;;;;;2.67;2.47;;;14.10;36.10;;;;;;5030974;28;20204;-44
2021/04/16 13:55:07;;;;;;;2.80;2.20;;;14.20;35.90;;;;;;5029195;28;20506;-44
2021/04/16 13:57:32;;;;;;;3.10;2.80;;;14.30;35.60;;;;;;5015812;28;20569;-43
2021/04/16 13:59:58;;;;;;;5.10;2.70;;;14.20;35.90;;;;;;5025696;28;20447;-42
2021/04/16 14:02:31;;;;;;;2.40;2.30;;;14.30;35.00;;;;;;5026344;28;20189;-41
2021/04/16 14:04:57;;;;;;;2.60;2.40;;;14.00;34.60;;;;;;5030796;28;20451;-42
2021/04/16 14:07:23;;;;;;;5.17;3.17;;;14.00;35.00;;;;;;5028727;28;20865;-44
2021/04/16 14:09:49;;;;;;;3.40;2.87;;;13.90;35.60;;;;;;5031120;28;20432;-46
2021/04/16 14:12:15;;;;;;;2.73;2.27;;;13.80;35.10;;;;;;5026586;28;20462;-41
2021/04/16 14:14:44;;;;;;;2.63;2.43;;;13.70;35.70;;;;;;5029477;28;20201;-43
2021/04/16 14:17:17;;;;;;;2.30;2.10;;;13.80;35.70;;;;;;5033594;28;20964;-43
2021/04/16 14:19:52;;;;;;;2.57;2.37;;;14.00;35.20;;;;;;5032662;28;20514;-45
2021/04/16 14:22:41;;;;;;;2.73;2.50;;;14.00;35.20;;;;;;5036057;28;20546;-45
2021/04/16 14:25:23;;;;;;;2.70;2.30;;;14.10;34.90;;;;;;5034768;28;20443;-45
2021/04/16 14:27:49;;;;;;;2.37;2.17;;;14.20;35.60;;;;;;5030134;28;20467;-45
2021/04/16 14:30:20;;;;;;;2.70;2.50;;;14.30;35.20;;;;;;5019086;28;20865;-42
2021/04/16 14:32:54;;;;;;;2.87;2.60;;;14.50;34.60;;;;;;5024330;28;20481;-43
2021/04/16 14:35:21;;;;;;;2.70;2.50;;;14.40;34.60;;;;;;5025801;28;20488;-41
2021/04/16 14:37:47;;;;;;;2.23;2.13;;;14.30;34.30;;;;;;5024922;28;20498;-43
2021/04/16 14:40:15;;;;;;;2.80;2.60;;;14.20;33.90;;;;;;5028278;28;20464;-42
2021/04/16 14:42:41;;;;;;;2.30;2.20;;;14.00;35.00;;;;;;5025601;28;20276;-48
2021/04/16 14:45:12;;;;;;;2.90;2.70;;;14.10;34.70;;;;;;5026829;28;20433;-44
2021/04/16 14:47:38;;;;;;;2.40;2.17;;;14.20;34.70;;;;;;5024261;28;20231;-43
2021/04/16 14:50:09;;;;;;;2.60;2.40;;;14.30;34.50;;;;;;5020343;28;20444;-45
2021/04/16 14:52:36;;;;;;;4.10;2.10;;;14.40;34.40;;;;;;5029524;28;20200;-46
2021/04/16 14:55:08;;;;;;;2.63;2.43;;;14.20;33.70;;;;;;5023923;28;20503;-43
2021/04/16 14:57:37;;;;;;;2.60;2.13;;;13.90;33.80;;;;;;5023690;28;20518;-47
2021/04/16 15:00:09;;;;;;;2.63;2.43;;;13.70;34.30;;;;;;5023979;28;20579;-44
2021/04/16 15:02:35;;;;;;;3.63;2.63;;;13.70;34.90;;;;;;5024013;28;20432;-44
2021/04/16 15:05:00;;;;;;;3.00;2.80;;;13.50;35.70;;;;;;5028924;28;20436;-43
2021/04/16 15:07:30;;;;;;;2.40;2.20;;;13.40;36.30;;;;;;5019216;28;20202;-43
2021/04/16 15:10:01;;;;;;;2.43;2.23;;;13.40;36.00;;;;;;5018836;28;20706;-48
2021/04/16 15:12:27;;;;;;;2.60;2.40;;;13.50;36.60;;;;;;5028815;28;20428;-46
2021/04/16 15:14:57;;;;;;;2.00;1.90;;;13.50;36.60;;;;;;5029096;28;20444;-47
2021/04/16 15:17:24;;;;;;;2.50;2.30;;;13.70;36.70;;;;;;5027519;28;20471;-43
2021/04/16 15:19:53;;;;;;;3.13;2.93;;;13.80;36.40;;;;;;5039760;28;20432;-47
2021/04/16 15:22:21;;;;;;;2.93;2.73;;;13.90;36.30;;;;;;5033303;28;20482;-46